createdAt,value
2022-11-29T00:00:03.224Z,3.42
2022-11-29T00:02:34.048Z,3.00
2022-11-29T00:05:04.342Z,2.85
2022-11-29T00:07:34.873Z,3.08
2022-11-29T00:10:05.561Z,2.17
2022-11-29T00:12:38.169Z,1.95
2022-11-29T00:15:09.613Z,2.95
2022-11-29T00:17:40.202Z,3.20
2022-11-29T00:20:12.995Z,2.85
2022-11-29T00:22:42.929Z,2.08
2022-11-29T00:25:13.366Z,2.75
2022-11-29T00:27:46.306Z,3.20
2022-11-29T00:30:17.058Z,2.53
2022-11-29T00:32:47.178Z,2.15
2022-11-29T00:35:17.359Z,4.18
2022-11-29T00:37:47.995Z,2.35
2022-11-29T00:40:18.590Z,1.65
2022-11-29T00:42:50.454Z,2.85
2022-11-29T00:45:21.132Z,1.95
2022-11-29T00:47:51.379Z,2.28
2022-11-29T00:50:22.020Z,2.45
2022-11-29T00:52:52.269Z,2.08
2022-11-29T00:55:22.921Z,2.70
2022-11-29T00:57:55.507Z,2.40
2022-11-29T01:00:26.404Z,2.72
2022-11-29T01:02:56.979Z,3.50
2022-11-29T01:05:27.703Z,2.35
2022-11-29T01:07:57.763Z,1.98
2022-11-29T01:10:28.634Z,4.15
2022-11-29T01:13:00.947Z,2.70
2022-11-29T01:15:31.728Z,2.33
2022-11-29T01:18:02.272Z,3.25
2022-11-29T01:20:33.207Z,2.13
2022-11-29T01:23:03.327Z,1.75
2022-11-29T01:25:33.876Z,1.77
2022-11-29T01:28:06.587Z,2.50
2022-11-29T01:30:37.100Z,2.05
2022-11-29T01:33:07.395Z,3.47
2022-11-29T01:35:37.613Z,4.32
2022-11-29T01:38:07.554Z,3.10
2022-11-29T01:40:38.219Z,2.00
2022-11-29T01:43:18.772Z,1.67
2022-11-29T01:45:48.821Z,3.40
2022-11-29T01:48:20.963Z,1.90
2022-11-29T01:50:51.704Z,3.17
2022-11-29T01:53:22.002Z,1.73
2022-11-29T01:55:59.174Z,3.63
2022-11-29T01:58:32.746Z,1.67
2022-11-29T02:01:04.582Z,2.17
2022-11-29T02:03:35.515Z,2.45
2022-11-29T02:06:08.326Z,2.20
2022-11-29T02:08:42.184Z,2.20
2022-11-29T02:12:01.659Z,2.60
2022-11-29T02:14:54.404Z,3.63
2022-11-29T02:17:37.103Z,1.85
2022-11-29T02:21:05.274Z,2.17
2022-11-29T02:24:14.140Z,2.92
2022-11-29T02:27:31.348Z,2.38
2022-11-29T02:30:39.308Z,3.33
2022-11-29T02:34:00.744Z,2.90
2022-11-29T02:37:06.011Z,4.10
2022-11-29T02:40:14.362Z,2.97
2022-11-29T02:43:24.622Z,3.05
2022-11-29T02:46:18.673Z,2.63
2022-11-29T02:49:06.011Z,2.85
2022-11-29T02:51:48.315Z,2.63
2022-11-29T02:54:28.280Z,2.40
2022-11-29T02:57:06.916Z,2.08
2022-11-29T02:59:52.762Z,3.08
2022-11-29T03:02:35.801Z,2.42
2022-11-29T03:05:21.125Z,2.25
2022-11-29T03:08:03.312Z,2.20
2022-11-29T03:10:48.479Z,1.95
2022-11-29T03:13:43.552Z,2.03
2022-11-29T03:16:31.383Z,2.00
2022-11-29T03:19:20.300Z,1.90
2022-11-29T03:22:04.769Z,2.28
2022-11-29T03:24:45.355Z,1.90
2022-11-29T03:27:26.637Z,2.33
2022-11-29T03:30:02.760Z,2.63
2022-11-29T03:32:45.542Z,1.60
2022-11-29T03:35:24.912Z,2.83
2022-11-29T03:38:05.728Z,2.70
2022-11-29T03:40:48.213Z,2.53
2022-11-29T03:43:28.796Z,1.90
2022-11-29T03:46:05.652Z,1.52
2022-11-29T03:48:46.572Z,1.05
2022-11-29T03:51:24.451Z,3.60
2022-11-29T03:54:00.665Z,1.35
2022-11-29T03:56:34.767Z,1.73
2022-11-29T03:59:26.547Z,1.73
2022-11-29T04:02:45.669Z,1.48
2022-11-29T04:06:03.153Z,1.65
2022-11-29T04:09:25.688Z,1.35
2022-11-29T04:12:36.596Z,1.98
2022-11-29T04:16:03.471Z,1.23
2022-11-29T04:19:44.407Z,2.22
2022-11-29T04:22:46.725Z,1.60
2022-11-29T04:26:05.438Z,1.05
2022-11-29T04:29:15.712Z,0.73
2022-11-29T04:32:31.809Z,1.77
2022-11-29T04:35:41.183Z,1.40
2022-11-29T04:39:06.085Z,1.50
2022-11-29T04:42:13.985Z,1.13
2022-11-29T04:45:19.358Z,2.90
2022-11-29T04:48:17.617Z,1.75
2022-11-29T04:51:05.531Z,1.67
2022-11-29T04:54:11.777Z,1.40
2022-11-29T04:56:49.820Z,1.52
2022-11-29T04:59:33.271Z,2.30
2022-11-29T05:02:16.834Z,1.42
2022-11-29T05:04:57.993Z,1.63
2022-11-29T05:07:42.090Z,2.45
2022-11-29T05:10:31.775Z,1.67
2022-11-29T05:13:15.150Z,1.90
2022-11-29T05:16:34.790Z,2.33
2022-11-29T05:19:41.354Z,2.13
2022-11-29T05:22:38.604Z,2.20
2022-11-29T05:25:39.995Z,2.53
2022-11-29T05:28:20.854Z,2.97
2022-11-29T05:31:44.832Z,4.32
2022-11-29T05:34:46.819Z,3.67
2022-11-29T05:37:33.597Z,4.85
2022-11-29T05:40:46.733Z,2.50
2022-11-29T05:43:46.120Z,5.15
2022-11-29T05:46:29.313Z,3.95
2022-11-29T05:49:17.986Z,4.47
2022-11-29T05:52:07.948Z,2.60
2022-11-29T05:54:48.771Z,2.88
2022-11-29T05:57:36.422Z,4.30
2022-11-29T06:00:15.093Z,3.58
2022-11-29T06:03:00.648Z,3.13
2022-11-29T06:05:42.066Z,2.85
2022-11-29T06:08:23.651Z,3.10
2022-11-29T06:11:07.017Z,2.88
2022-11-29T06:13:57.712Z,2.70
2022-11-29T06:16:59.473Z,2.92
2022-11-29T06:20:22.503Z,3.92
2022-11-29T06:23:48.845Z,3.25
2022-11-29T06:26:42.859Z,4.20
2022-11-29T06:29:39.952Z,3.30
2022-11-29T06:32:27.150Z,3.70
2022-11-29T06:35:05.716Z,3.97
2022-11-29T06:37:42.889Z,4.50
2022-11-29T06:40:17.021Z,3.58
2022-11-29T06:42:49.300Z,4.10
2022-11-29T06:45:23.976Z,2.85
2022-11-29T06:48:04.622Z,3.28
2022-11-29T06:50:52.772Z,3.60
2022-11-29T06:53:38.576Z,3.30
2022-11-29T06:56:23.331Z,3.00
2022-11-29T06:59:09.731Z,3.05
2022-11-29T07:01:50.841Z,3.22
2022-11-29T07:04:57.196Z,3.60
2022-11-29T07:07:28.577Z,3.33
2022-11-29T07:10:01.119Z,4.60
2022-11-29T07:12:32.496Z,4.10
2022-11-29T07:15:03.205Z,3.63
2022-11-29T07:17:51.891Z,6.22
2022-11-29T07:20:38.187Z,3.60
2022-11-29T07:23:23.735Z,4.38
2022-11-29T07:26:10.609Z,3.75
2022-11-29T07:28:59.025Z,3.38
2022-11-29T07:31:45.870Z,3.38
2022-11-29T07:34:34.389Z,4.05
2022-11-29T07:37:16.545Z,4.18
2022-11-29T07:40:02.449Z,4.18
2022-11-29T07:42:51.539Z,3.85
2022-11-29T07:45:29.573Z,3.72
2022-11-29T07:47:59.979Z,5.88
2022-11-29T07:50:34.351Z,3.90
2022-11-29T07:53:04.867Z,4.10
2022-11-29T07:55:38.296Z,4.10
2022-11-29T07:58:08.878Z,4.03
2022-11-29T08:00:39.269Z,4.43
2022-11-29T08:03:09.426Z,4.30
2022-11-29T08:05:42.494Z,4.78
2022-11-29T08:08:13.044Z,4.78
2022-11-29T08:10:43.659Z,4.50
2022-11-29T08:13:14.155Z,4.20
2022-11-29T08:15:47.684Z,4.28
2022-11-29T08:18:18.678Z,6.75
2022-11-29T08:20:50.864Z,4.80
2022-11-29T08:23:21.488Z,4.25
2022-11-29T08:25:51.812Z,5.70
2022-11-29T08:28:21.966Z,4.25
2022-11-29T08:30:52.449Z,5.03
2022-11-29T08:33:23.054Z,4.55
2022-11-29T08:35:55.837Z,4.68
2022-11-29T08:38:26.440Z,4.47
2022-11-29T08:40:57.048Z,5.03
2022-11-29T08:43:27.633Z,5.13
2022-11-29T08:45:57.854Z,4.80
2022-11-29T08:48:28.972Z,4.90
2022-11-29T08:51:02.411Z,6.00
2022-11-29T08:53:43.373Z,4.55
2022-11-29T08:57:04.625Z,4.15
2022-11-29T08:59:07.618Z,4.15
2022-11-29T09:01:37.758Z,6.10
2022-11-29T09:04:10.882Z,4.90
2022-11-29T09:06:45.446Z,4.63
2022-11-29T09:09:15.509Z,4.15
2022-11-29T09:11:49.729Z,4.78
2022-11-29T09:14:23.355Z,5.53
2022-11-29T09:16:53.793Z,4.43
2022-11-29T09:19:24.594Z,3.60
2022-11-29T09:21:57.819Z,4.40
2022-11-29T09:24:29.225Z,4.70
2022-11-29T09:26:59.595Z,4.75
2022-11-29T09:29:31.797Z,4.78
2022-11-29T09:32:02.449Z,3.97
2022-11-29T09:34:32.972Z,4.18
2022-11-29T09:37:07.092Z,4.32
2022-11-29T09:39:37.647Z,3.65
2022-11-29T09:42:38.166Z,3.33
2022-11-29T09:45:13.984Z,4.60
2022-11-29T09:48:22.009Z,4.32
2022-11-29T09:51:05.145Z,3.58
2022-11-29T09:53:57.584Z,4.63
2022-11-29T09:56:39.689Z,3.15
2022-11-29T09:59:20.034Z,3.33
2022-11-29T10:02:00.651Z,3.83
2022-11-29T10:04:40.768Z,3.17
2022-11-29T10:07:22.062Z,5.18
2022-11-29T10:10:03.169Z,5.03
2022-11-29T10:12:42.548Z,2.92
2022-11-29T10:15:20.991Z,3.35
2022-11-29T10:17:59.876Z,3.67
2022-11-29T10:20:39.746Z,6.00
2022-11-29T10:23:42.888Z,3.47
2022-11-29T10:26:16.399Z,4.50
2022-11-29T10:28:49.968Z,4.35
2022-11-29T10:31:27.517Z,3.47
2022-11-29T10:34:01.405Z,3.50
2022-11-29T10:36:41.591Z,3.53
2022-11-29T10:39:20.611Z,3.63
2022-11-29T10:41:58.302Z,3.47
2022-11-29T10:44:30.320Z,3.83
2022-11-29T10:47:10.738Z,3.95
2022-11-29T10:49:41.993Z,3.78
2022-11-29T10:52:22.409Z,3.95
2022-11-29T10:54:58.923Z,3.65
2022-11-29T10:57:31.296Z,4.95
2022-11-29T11:00:05.502Z,3.47
2022-11-29T11:02:37.157Z,3.67
2022-11-29T11:05:19.926Z,3.35
2022-11-29T11:08:00.232Z,3.60
2022-11-29T11:10:33.032Z,2.70
2022-11-29T11:13:23.176Z,2.35
2022-11-29T11:16:00.960Z,2.00
2022-11-29T11:18:31.341Z,1.88
2022-11-29T11:21:04.475Z,3.58
2022-11-29T11:23:42.331Z,1.73
2022-11-29T11:26:16.432Z,1.67
2022-11-29T11:28:59.457Z,1.65
2022-11-29T11:31:38.459Z,1.80
2022-11-29T11:34:53.943Z,1.95
2022-11-29T11:37:28.832Z,1.50
2022-11-29T11:40:02.546Z,1.55
2022-11-29T11:42:42.634Z,1.40
2022-11-29T11:45:42.135Z,1.15
2022-11-29T11:48:19.540Z,1.17
2022-11-29T11:50:55.045Z,1.63
2022-11-29T11:53:30.438Z,1.40
2022-11-29T11:56:07.829Z,1.50
2022-11-29T11:58:48.196Z,1.33
2022-11-29T12:01:31.231Z,1.50
2022-11-29T12:04:12.063Z,1.20
2022-11-29T12:06:51.734Z,1.60
2022-11-29T12:09:45.308Z,1.40
2022-11-29T12:12:22.388Z,0.90
2022-11-29T12:15:01.949Z,1.55
2022-11-29T12:17:40.691Z,1.67
2022-11-29T12:20:25.430Z,2.45
2022-11-29T12:23:24.792Z,1.08
2022-11-29T12:26:02.133Z,1.30
2022-11-29T12:28:38.627Z,1.20
2022-11-29T12:31:28.937Z,1.60
2022-11-29T12:34:28.321Z,1.33
2022-11-29T12:37:12.849Z,1.33
2022-11-29T12:39:59.631Z,1.30
2022-11-29T12:42:52.377Z,1.02
2022-11-29T12:45:43.922Z,1.20
2022-11-29T12:48:31.720Z,0.95
2022-11-29T12:51:18.540Z,1.30
2022-11-29T12:54:13.044Z,1.23
2022-11-29T12:56:53.137Z,1.20
2022-11-29T12:59:47.679Z,1.48
2022-11-29T13:02:43.934Z,1.20
2022-11-29T13:05:30.293Z,1.17
2022-11-29T13:08:40.417Z,1.27
2022-11-29T13:11:21.962Z,1.70
2022-11-29T13:14:34.743Z,1.40
2022-11-29T13:17:02.741Z,1.40
2022-11-29T13:19:45.973Z,1.75
2022-11-29T13:22:30.335Z,1.48
2022-11-29T13:25:08.972Z,1.20
2022-11-29T13:27:46.931Z,1.70
2022-11-29T13:30:18.776Z,1.38
2022-11-29T13:32:59.372Z,1.33
2022-11-29T13:35:40.823Z,1.58
2022-11-29T13:38:23.905Z,1.60
2022-11-29T13:41:04.600Z,1.65
2022-11-29T13:43:44.530Z,1.55
2022-11-29T13:46:30.354Z,2.25
2022-11-29T13:49:01.555Z,1.42
2022-11-29T13:51:37.623Z,1.60
2022-11-29T13:54:26.994Z,1.55
2022-11-29T13:57:09.885Z,1.60
2022-11-29T13:59:47.429Z,1.58
2022-11-29T14:02:32.754Z,1.50
2022-11-29T14:05:04.047Z,1.70
2022-11-29T14:07:35.595Z,1.50
2022-11-29T14:10:10.077Z,1.60
2022-11-29T14:12:53.350Z,1.50
2022-11-29T14:15:31.756Z,1.55
2022-11-29T14:18:04.164Z,1.42
2022-11-29T14:20:58.659Z,1.40
2022-11-29T14:23:43.323Z,1.55
2022-11-29T14:26:31.240Z,1.50
2022-11-29T14:29:04.354Z,1.48
2022-11-29T14:31:57.652Z,1.58
2022-11-29T14:34:49.192Z,1.17
2022-11-29T14:37:48.392Z,1.45
2022-11-29T14:40:38.503Z,1.95
2022-11-29T14:43:23.947Z,1.60
2022-11-29T14:46:26.184Z,1.35
2022-11-29T14:49:05.564Z,1.33
2022-11-29T14:51:37.813Z,1.40
2022-11-29T14:54:19.930Z,1.35
2022-11-29T14:56:50.465Z,1.45
2022-11-29T15:00:01.477Z,1.70
2022-11-29T15:02:41.244Z,2.05
2022-11-29T15:05:24.793Z,1.70
2022-11-29T15:08:11.153Z,1.52
2022-11-29T15:10:47.209Z,1.60
2022-11-29T15:13:27.437Z,1.65
2022-11-29T15:16:24.195Z,1.73
2022-11-29T15:19:39.912Z,1.63
2022-11-29T15:22:19.790Z,1.40
2022-11-29T15:24:57.074Z,1.48
2022-11-29T15:27:28.856Z,1.70
2022-11-29T15:30:00.390Z,2.33
2022-11-29T15:32:33.565Z,1.63
2022-11-29T15:35:08.103Z,1.58
2022-11-29T15:37:46.997Z,1.83
2022-11-29T15:40:23.933Z,1.58
2022-11-29T15:43:03.316Z,1.77
2022-11-29T15:45:36.838Z,2.00
2022-11-29T15:48:32.411Z,1.80
2022-11-29T15:51:29.785Z,2.83
2022-11-29T15:54:13.247Z,1.85
2022-11-29T15:56:49.992Z,1.92
2022-11-29T15:59:33.541Z,1.85
2022-11-29T16:02:11.127Z,1.95
2022-11-29T16:04:47.160Z,2.00
2022-11-29T16:07:22.650Z,2.00
2022-11-29T16:09:59.725Z,2.40
2022-11-29T16:12:30.628Z,2.40
2022-11-29T16:15:04.147Z,1.95
2022-11-29T16:17:37.272Z,2.17
2022-11-29T16:20:25.572Z,2.20
2022-11-29T16:23:13.901Z,2.40
2022-11-29T16:26:02.017Z,2.55
2022-11-29T16:28:39.401Z,2.30
2022-11-29T16:31:14.983Z,2.17
2022-11-29T16:33:49.482Z,2.30
2022-11-29T16:36:25.094Z,2.10
2022-11-29T16:39:06.996Z,1.80
2022-11-29T16:41:40.037Z,2.17
2022-11-29T16:45:07.787Z,2.10
2022-11-29T16:47:58.439Z,2.00
2022-11-29T16:50:30.629Z,2.30
2022-11-29T16:53:36.413Z,2.38
2022-11-29T16:56:13.857Z,2.00
2022-11-29T16:59:17.208Z,2.53
2022-11-29T17:01:37.133Z,3.60
2022-11-29T17:04:07.567Z,2.47
2022-11-29T17:06:39.063Z,2.22
2022-11-29T17:09:10.148Z,2.35
2022-11-29T17:11:42.544Z,2.40
2022-11-29T17:14:12.729Z,2.63
2022-11-29T17:16:43.160Z,2.85
2022-11-29T17:19:15.461Z,2.67
2022-11-29T17:21:45.882Z,2.70
2022-11-29T17:24:19.186Z,2.60
2022-11-29T17:26:51.924Z,2.45
2022-11-29T17:29:22.654Z,2.60
2022-11-29T17:31:54.029Z,2.88
2022-11-29T17:34:29.341Z,3.30
2022-11-29T17:37:00.725Z,2.88
2022-11-29T17:39:31.195Z,3.03
2022-11-29T17:42:02.917Z,3.13
2022-11-29T17:44:34.644Z,2.97
2022-11-29T17:47:05.279Z,3.72
2022-11-29T17:49:35.860Z,3.15
2022-11-29T17:52:06.378Z,3.00
2022-11-29T17:54:38.765Z,3.92
2022-11-29T17:57:11.193Z,3.00
2022-11-29T17:59:41.516Z,2.83
2022-11-29T18:02:15.812Z,3.10
2022-11-29T18:04:46.585Z,3.08
2022-11-29T18:07:17.609Z,3.83
2022-11-29T18:09:49.419Z,3.45
2022-11-29T18:12:22.972Z,3.08
2022-11-29T18:14:53.508Z,3.25
2022-11-29T18:17:23.772Z,3.33
2022-11-29T18:19:56.985Z,3.15
2022-11-29T18:22:28.032Z,3.20
2022-11-29T18:25:22.676Z,3.17
2022-11-29T18:27:51.929Z,3.33
2022-11-29T18:30:22.123Z,3.08
2022-11-29T18:32:52.397Z,3.00
2022-11-29T18:35:23.067Z,3.38
2022-11-29T18:40:46.035Z,3.40
2022-11-29T18:43:19.437Z,3.75
2022-11-29T18:45:51.294Z,3.45
2022-11-29T18:48:22.016Z,3.58
2022-11-29T18:50:55.306Z,3.63
2022-11-29T18:53:27.279Z,3.47
2022-11-29T18:56:11.019Z,3.88
2022-11-29T18:58:45.845Z,3.78
2022-11-29T19:01:21.782Z,3.55
2022-11-29T19:04:00.875Z,3.92
2022-11-29T19:06:40.242Z,3.47
2022-11-29T19:09:17.748Z,3.80
2022-11-29T19:11:49.201Z,3.80
2022-11-29T19:14:25.653Z,3.60
2022-11-29T19:16:58.570Z,3.70
2022-11-29T19:19:31.179Z,4.32
2022-11-29T19:22:04.794Z,4.18
2022-11-29T19:24:41.749Z,3.92
2022-11-29T19:27:14.688Z,4.15
2022-11-29T19:29:51.107Z,3.78
2022-11-29T19:32:23.757Z,3.80
2022-11-29T19:34:58.824Z,3.55
2022-11-29T19:37:32.162Z,3.78
2022-11-29T19:40:05.194Z,4.03
2022-11-29T19:42:38.116Z,3.70
2022-11-29T19:45:18.044Z,3.67
2022-11-29T19:47:54.240Z,5.10
2022-11-29T19:50:25.347Z,4.40
2022-11-29T19:52:59.595Z,5.60
2022-11-29T19:55:32.059Z,4.32
2022-11-29T19:58:05.958Z,4.60
2022-11-29T20:00:40.076Z,5.50
2022-11-29T20:03:13.892Z,4.80
2022-11-29T20:05:44.650Z,5.22
2022-11-29T20:08:21.012Z,4.90
2022-11-29T20:10:52.383Z,4.15
2022-11-29T20:13:23.538Z,4.35
2022-11-29T20:15:56.055Z,4.22
2022-11-29T20:18:28.589Z,3.90
2022-11-29T20:21:03.898Z,4.47
2022-11-29T20:23:35.214Z,4.10
2022-11-29T20:26:06.143Z,4.03
2022-11-29T20:28:38.864Z,3.58
2022-11-29T20:31:15.318Z,3.83
2022-11-29T20:33:47.489Z,4.03
2022-11-29T20:36:35.296Z,4.15
2022-11-29T20:39:20.732Z,3.92
2022-11-29T20:42:10.685Z,4.38
2022-11-29T20:44:47.125Z,4.28
2022-11-29T20:47:23.741Z,4.07
2022-11-29T20:49:55.374Z,4.22
2022-11-29T20:52:40.455Z,3.95
2022-11-29T20:55:12.200Z,3.50
2022-11-29T20:57:43.073Z,4.05
2022-11-29T21:00:16.001Z,4.22
2022-11-29T21:02:48.756Z,4.57
2022-11-29T21:05:19.444Z,4.03
2022-11-29T21:07:49.620Z,3.70
2022-11-29T21:10:22.329Z,4.22
2022-11-29T21:12:53.715Z,3.72
2022-11-29T21:15:24.976Z,4.20
2022-11-29T21:17:58.907Z,4.32
2022-11-29T21:20:31.016Z,3.97
2022-11-29T21:23:10.968Z,3.50
2022-11-29T21:25:51.868Z,3.70
2022-11-29T21:28:26.447Z,3.67
2022-11-29T21:30:57.394Z,3.63
2022-11-29T21:33:31.570Z,3.45
2022-11-29T21:36:03.393Z,3.92
2022-11-29T21:38:34.716Z,4.20
2022-11-29T21:41:04.886Z,3.95
2022-11-29T21:44:04.958Z,3.40
2022-11-29T21:46:25.853Z,3.60
2022-11-29T21:48:59.578Z,4.40
2022-11-29T21:51:30.097Z,4.00
2022-11-29T21:54:00.724Z,3.55
2022-11-29T21:56:31.165Z,3.70
2022-11-29T21:59:01.198Z,3.60
2022-11-29T22:01:34.244Z,3.80
2022-11-29T22:04:06.812Z,3.67
2022-11-29T22:06:37.298Z,4.57
2022-11-29T22:09:08.154Z,3.50
2022-11-29T22:11:38.822Z,4.03
2022-11-29T22:14:18.750Z,3.83
2022-11-29T22:16:52.489Z,3.38
2022-11-29T22:19:26.244Z,3.17
2022-11-29T22:21:59.942Z,3.65
2022-11-29T22:24:33.218Z,3.42
2022-11-29T22:27:04.212Z,3.70
2022-11-29T22:29:34.456Z,3.35
2022-11-29T22:32:05.042Z,3.45
2022-11-29T22:34:37.580Z,3.40
2022-11-29T22:37:07.269Z,3.40
2022-11-29T22:39:37.872Z,3.75
2022-11-29T22:42:08.525Z,3.55
2022-11-29T22:44:39.406Z,3.20
2022-11-29T22:47:10.164Z,3.53
2022-11-29T22:49:42.147Z,4.90
2022-11-29T22:52:12.679Z,3.60
2022-11-29T22:54:48.077Z,3.67
2022-11-29T22:57:22.601Z,3.45
2022-11-29T22:59:52.564Z,3.35
2022-11-29T23:02:23.426Z,3.80
2022-11-29T23:04:56.275Z,3.78
2022-11-29T23:07:27.090Z,4.43
2022-11-29T23:09:57.774Z,4.82
2022-11-29T23:12:28.016Z,4.88
2022-11-29T23:14:59.702Z,5.25
2022-11-29T23:17:30.212Z,5.38
2022-11-29T23:20:02.384Z,5.60
2022-11-29T23:22:33.423Z,6.00
2022-11-29T23:25:03.550Z,5.28
2022-11-29T23:27:33.772Z,6.00
2022-11-29T23:30:04.615Z,5.30
2022-11-29T23:32:35.093Z,5.60
2022-11-29T23:35:08.134Z,5.18
2022-11-29T23:37:37.746Z,5.15
2022-11-29T23:40:10.402Z,4.72
2022-11-29T23:42:44.974Z,5.05
2022-11-29T23:45:17.598Z,4.80
2022-11-29T23:47:48.227Z,4.93
2022-11-29T23:50:21.487Z,4.65
2022-11-29T23:52:55.993Z,4.20
2022-11-29T23:55:28.080Z,3.97
2022-11-29T23:57:58.661Z,4.43
